ACA872 CYYZ-EDDF
Flight info
| Callsign | ACA872 |
|---|---|
| Flight time | N/A |
| Altitude | 33000 |
| Route | VERDO7 IPTOS Q921 AGLUK DCT BAREE N723A MELDI/M083F350 DCT 54N050W 5530N04000W 56N030W 56N020W DCT PIKIL/N0474F350 DCT SOVED DCT NIBOG DCT BELOX/N0477F370 L603 DOLAS DCT NAVPI DCT NOLRU DCT DIXAT DIXAT1B |
| Aircraft | L101/H-SDFGHIRWXY/S |
Departure
| Time | 2026-05-06 10:22 |
|---|---|
| Airport | Toronto Pearson International Airport (CYYZ) |
Arrival
| Time | N/A |
|---|---|
| Airport | Frankfurt Main Airport (EDDF) |
| Time | Latitude | Longitude | Altitude | Speed | Heading |
|---|---|---|---|---|---|
| 2026-05-06 09:58 | 43.67724 | -79.60962 | 575 ft | 0 kts | 245° |
| 2026-05-06 10:11 | 43.67733 | -79.60936 | 575 ft | 4 kts | 245° |
| 2026-05-06 10:11 | 43.67743 | -79.60907 | 575 ft | 3 kts | 236° |
| 2026-05-06 10:11 | 43.67760 | -79.60889 | 575 ft | 3 kts | 174° |
| 2026-05-06 10:11 | 43.67784 | -79.60900 | 575 ft | 3 kts | 143° |
| 2026-05-06 10:12 | 43.67792 | -79.60909 | 580 ft | 0 kts | 137° |
| 2026-05-06 10:15 | 43.67785 | -79.60900 | 578 ft | 3 kts | 137° |
| 2026-05-06 10:15 | 43.67765 | -79.60873 | 573 ft | 5 kts | 136° |
| 2026-05-06 10:15 | 43.67740 | -79.60841 | 573 ft | 5 kts | 136° |
| 2026-05-06 10:16 | 43.67712 | -79.60804 | 573 ft | 7 kts | 136° |
| 2026-05-06 10:16 | 43.67666 | -79.60765 | 574 ft | 9 kts | 176° |
| 2026-05-06 10:16 | 43.67609 | -79.60817 | 574 ft | 12 kts | 228° |
| 2026-05-06 10:16 | 43.67545 | -79.60903 | 573 ft | 13 kts | 202° |
| 2026-05-06 10:17 | 43.67471 | -79.60879 | 572 ft | 10 kts | 178° |
| 2026-05-06 10:17 | 43.67417 | -79.60923 | 573 ft | 11 kts | 230° |
| 2026-05-06 10:17 | 43.67364 | -79.61023 | 574 ft | 15 kts | 233° |
| 2026-05-06 10:17 | 43.67289 | -79.61161 | 572 ft | 20 kts | 234° |
| 2026-05-06 10:18 | 43.67213 | -79.61300 | 576 ft | 15 kts | 232° |
| 2026-05-06 10:18 | 43.67157 | -79.61393 | 577 ft | 11 kts | 222° |
| 2026-05-06 10:18 | 43.67100 | -79.61465 | 577 ft | 11 kts | 223° |
| 2026-05-06 10:18 | 43.67043 | -79.61536 | 576 ft | 12 kts | 222° |
| 2026-05-06 10:19 | 43.66975 | -79.61622 | 578 ft | 14 kts | 222° |
| 2026-05-06 10:19 | 43.66899 | -79.61718 | 575 ft | 16 kts | 222° |
| 2026-05-06 10:19 | 43.66814 | -79.61825 | 577 ft | 17 kts | 222° |
| 2026-05-06 10:19 | 43.66720 | -79.61943 | 578 ft | 19 kts | 222° |
| 2026-05-06 10:20 | 43.66619 | -79.62070 | 577 ft | 20 kts | 222° |
| 2026-05-06 10:20 | 43.66517 | -79.62199 | 575 ft | 20 kts | 222° |
| 2026-05-06 10:20 | 43.66419 | -79.62323 | 573 ft | 19 kts | 222° |
| 2026-05-06 10:20 | 43.66322 | -79.62444 | 570 ft | 19 kts | 222° |
| 2026-05-06 10:21 | 43.66219 | -79.62488 | 567 ft | 15 kts | 149° |
| 2026-05-06 10:21 | 43.66147 | -79.62401 | 572 ft | 12 kts | 136° |
| 2026-05-06 10:21 | 43.66124 | -79.62324 | 572 ft | 7 kts | 83° |
| 2026-05-06 10:21 | 43.66141 | -79.62282 | 577 ft | 5 kts | 43° |
| 2026-05-06 10:22 | 43.66204 | -79.62195 | 576 ft | 32 kts | 46° |
| 2026-05-06 10:22 | 43.66549 | -79.61697 | 571 ft | 111 kts | 46° |
| 2026-05-06 10:22 | 43.67246 | -79.60680 | 618 ft | 175 kts | 49° |
| 2026-05-06 10:22 | 43.68139 | -79.59363 | 1212 ft | 201 kts | 49° |
| 2026-05-06 10:23 | 43.68992 | -79.57949 | 2395 ft | 190 kts | 60° |
| 2026-05-06 10:23 | 43.69507 | -79.56141 | 2992 ft | 218 kts | 77° |
| 2026-05-06 10:23 | 43.69676 | -79.53967 | 3203 ft | 234 kts | 90° |
| 2026-05-06 10:23 | 43.69560 | -79.51718 | 3432 ft | 236 kts | 97° |
| 2026-05-06 10:24 | 43.69283 | -79.49474 | 3650 ft | 238 kts | 101° |
| 2026-05-06 10:24 | 43.68930 | -79.47234 | 3842 ft | 240 kts | 102° |
| 2026-05-06 10:24 | 43.68542 | -79.44987 | 3975 ft | 241 kts | 103° |
| 2026-05-06 10:24 | 43.68139 | -79.42733 | 4106 ft | 244 kts | 102° |
| 2026-05-06 10:25 | 43.67712 | -79.40359 | 4259 ft | 266 kts | 103° |
| 2026-05-06 10:25 | 43.67258 | -79.37829 | 4407 ft | 272 kts | 103° |
| 2026-05-06 10:25 | 43.66802 | -79.35285 | 4558 ft | 273 kts | 103° |
| 2026-05-06 10:25 | 43.66347 | -79.32768 | 4675 ft | 273 kts | 103° |
| 2026-05-06 10:26 | 43.65886 | -79.30215 | 4763 ft | 273 kts | 103° |
| 2026-05-06 10:26 | 43.65434 | -79.27696 | 5199 ft | 271 kts | 101° |
| 2026-05-06 10:26 | 43.65313 | -79.25068 | 5660 ft | 277 kts | 79° |
| 2026-05-06 10:26 | 43.65843 | -79.22507 | 6208 ft | 281 kts | 66° |
| 2026-05-06 10:27 | 43.66559 | -79.19940 | 6740 ft | 292 kts | 69° |
| 2026-05-06 10:27 | 43.67165 | -79.17233 | 7243 ft | 298 kts | 73° |
| 2026-05-06 10:27 | 43.67739 | -79.14460 | 7728 ft | 302 kts | 72° |
| 2026-05-06 10:27 | 43.68410 | -79.11688 | 8255 ft | 306 kts | 70° |
| 2026-05-06 10:28 | 43.69205 | -79.08933 | 8778 ft | 311 kts | 67° |
| 2026-05-06 10:28 | 43.70076 | -79.06175 | 9324 ft | 316 kts | 68° |
| 2026-05-06 10:28 | 43.70898 | -79.03337 | 9840 ft | 320 kts | 72° |
| 2026-05-06 10:28 | 43.71619 | -79.00378 | 10258 ft | 335 kts | 75° |
| 2026-05-06 10:29 | 43.72345 | -78.97186 | 10400 ft | 362 kts | 75° |
| 2026-05-06 10:29 | 43.73125 | -78.93788 | 10508 ft | 388 kts | 74° |
| 2026-05-06 10:29 | 43.73990 | -78.90122 | 10623 ft | 412 kts | 73° |
| 2026-05-06 10:29 | 43.74905 | -78.86288 | 11026 ft | 424 kts | 73° |
| 2026-05-06 10:30 | 43.75828 | -78.82429 | 12019 ft | 420 kts | 73° |
| 2026-05-06 10:30 | 43.76764 | -78.78551 | 12515 ft | 432 kts | 72° |
| 2026-05-06 10:30 | 43.77913 | -78.74664 | 13169 ft | 436 kts | 65° |
| 2026-05-06 10:30 | 43.79249 | -78.70888 | 13884 ft | 442 kts | 64° |
| 2026-05-06 10:31 | 43.80625 | -78.67052 | 14479 ft | 446 kts | 64° |
| 2026-05-06 10:31 | 43.81969 | -78.63140 | 15097 ft | 451 kts | 65° |
| 2026-05-06 10:31 | 43.83293 | -78.59170 | 15746 ft | 457 kts | 66° |
| 2026-05-06 10:31 | 43.84638 | -78.55157 | 16452 ft | 461 kts | 65° |
| 2026-05-06 10:32 | 43.86025 | -78.51093 | 17078 ft | 468 kts | 65° |
| 2026-05-06 10:32 | 43.87423 | -78.47051 | 17758 ft | 474 kts | 65° |
| 2026-05-06 10:32 | 43.88859 | -78.42905 | 18399 ft | 480 kts | 65° |
| 2026-05-06 10:32 | 43.90311 | -78.38695 | 18957 ft | 486 kts | 65° |
| 2026-05-06 10:33 | 43.91775 | -78.34432 | 19544 ft | 493 kts | 65° |
| 2026-05-06 10:33 | 43.93258 | -78.30102 | 20140 ft | 499 kts | 65° |
| 2026-05-06 10:33 | 43.94760 | -78.25718 | 20743 ft | 505 kts | 65° |
| 2026-05-06 10:33 | 43.96260 | -78.21337 | 21350 ft | 512 kts | 65° |
| 2026-05-06 10:34 | 43.97798 | -78.16841 | 21963 ft | 519 kts | 65° |
| 2026-05-06 10:34 | 43.99354 | -78.12284 | 22586 ft | 525 kts | 65° |
| 2026-05-06 10:34 | 44.00929 | -78.07662 | 23211 ft | 532 kts | 65° |
| 2026-05-06 10:34 | 44.02521 | -78.02984 | 23796 ft | 538 kts | 65° |
| 2026-05-06 10:35 | 44.04127 | -77.98254 | 24376 ft | 542 kts | 65° |
| 2026-05-06 10:35 | 44.05738 | -77.93497 | 24863 ft | 547 kts | 64° |
| 2026-05-06 10:35 | 44.07367 | -77.88680 | 25377 ft | 551 kts | 64° |
| 2026-05-06 10:35 | 44.09002 | -77.83843 | 25973 ft | 554 kts | 64° |
| 2026-05-06 10:36 | 44.10645 | -77.78976 | 26534 ft | 557 kts | 64° |
| 2026-05-06 10:36 | 44.12295 | -77.74080 | 27091 ft | 560 kts | 64° |
| 2026-05-06 10:36 | 44.13929 | -77.69215 | 27628 ft | 563 kts | 64° |
| 2026-05-06 10:36 | 44.15592 | -77.64258 | 28178 ft | 566 kts | 64° |
| 2026-05-06 10:37 | 44.17261 | -77.59272 | 28665 ft | 569 kts | 64° |
| 2026-05-06 10:37 | 44.18957 | -77.54276 | 29225 ft | 570 kts | 61° |
| 2026-05-06 10:37 | 44.21031 | -77.49603 | 29915 ft | 565 kts | 50° |
| 2026-05-06 10:37 | 44.23475 | -77.45342 | 30524 ft | 562 kts | 48° |
| 2026-05-06 10:38 | 44.25911 | -77.41063 | 31062 ft | 562 kts | 50° |
| 2026-05-06 10:38 | 44.28242 | -77.36691 | 31601 ft | 562 kts | 52° |
| 2026-05-06 10:38 | 44.30560 | -77.32294 | 32265 ft | 558 kts | 51° |
| 2026-05-06 10:38 | 44.32907 | -77.27983 | 32711 ft | 561 kts | 50° |
| 2026-05-06 10:39 | 44.35320 | -77.23694 | 32856 ft | 561 kts | 49° |
| 2026-05-06 10:39 | 44.37721 | -77.19487 | 32874 ft | 559 kts | 49° |
| 2026-05-06 10:39 | 44.42574 | -77.10972 | 32890 ft | 562 kts | 49° |
| 2026-05-06 10:40 | 44.47455 | -77.02370 | 32897 ft | 564 kts | 49° |
| 2026-05-06 10:40 | 44.52321 | -76.93789 | 32887 ft | 561 kts | 49° |
| 2026-05-06 10:41 | 44.57166 | -76.85225 | 32887 ft | 560 kts | 49° |
| 2026-05-06 10:41 | 44.61979 | -76.76694 | 32920 ft | 561 kts | 49° |
| 2026-05-06 10:42 | 44.66820 | -76.68088 | 32892 ft | 562 kts | 49° |
| 2026-05-06 10:42 | 44.71668 | -76.59442 | 32876 ft | 563 kts | 49° |
| 2026-05-06 10:43 | 44.76509 | -76.50786 | 32885 ft | 563 kts | 49° |
| 2026-05-06 10:44 | 44.83777 | -76.37741 | 32883 ft | 566 kts | 49° |
| 2026-05-06 10:44 | 44.88607 | -76.29036 | 32875 ft | 567 kts | 50° |
| 2026-05-06 10:44 | 44.90870 | -76.24458 | 32823 ft | 570 kts | 61° |
| 2026-05-06 10:45 | 44.92461 | -76.19356 | 32866 ft | 566 kts | 72° |
| 2026-05-06 10:45 | 44.95040 | -76.08789 | 32890 ft | 570 kts | 69° |
| 2026-05-06 10:46 | 44.97880 | -75.98378 | 32878 ft | 571 kts | 70° |
| 2026-05-06 10:46 | 45.00552 | -75.87818 | 32875 ft | 571 kts | 71° |
| 2026-05-06 10:47 | 45.03137 | -75.77201 | 32881 ft | 571 kts | 71° |
| 2026-05-06 10:47 | 45.05716 | -75.66587 | 32865 ft | 570 kts | 71° |
| 2026-05-06 10:48 | 45.08280 | -75.55956 | 32885 ft | 571 kts | 72° |
| 2026-05-06 10:48 | 45.10817 | -75.45368 | 32879 ft | 572 kts | 72° |
| 2026-05-06 10:49 | 45.13360 | -75.34700 | 32884 ft | 572 kts | 72° |
| 2026-05-06 10:49 | 45.15893 | -75.24023 | 32862 ft | 572 kts | 72° |
| 2026-05-06 10:50 | 45.18415 | -75.13338 | 32877 ft | 570 kts | 71° |
| 2026-05-06 10:50 | 45.20932 | -75.02640 | 32885 ft | 572 kts | 72° |
| 2026-05-06 10:51 | 45.23444 | -74.91910 | 32878 ft | 573 kts | 70° |
| 2026-05-06 10:51 | 45.25046 | -74.86740 | 32820 ft | 572 kts | 56° |
| 2026-05-06 10:51 | 45.27362 | -74.82313 | 32862 ft | 561 kts | 44° |
| 2026-05-06 10:52 | 45.32614 | -74.74046 | 32898 ft | 567 kts | 46° |
| 2026-05-06 10:52 | 45.37707 | -74.65519 | 32875 ft | 564 kts | 44° |
| 2026-05-06 10:53 | 45.43007 | -74.57293 | 32876 ft | 563 kts | 42° |
| 2026-05-06 10:53 | 45.48381 | -74.49158 | 32877 ft | 563 kts | 42° |
| 2026-05-06 10:54 | 45.53752 | -74.40999 | 32870 ft | 566 kts | 42° |
| 2026-05-06 10:54 | 45.56940 | -74.36163 | 32873 ft | 569 kts | 42° |
| 2026-05-06 10:55 | 45.62367 | -74.27918 | 32870 ft | 570 kts | 42° |
| 2026-05-06 10:55 | 45.67796 | -74.19650 | 32876 ft | 570 kts | 42° |
| 2026-05-06 10:56 | 45.73223 | -74.11361 | 32860 ft | 570 kts | 43° |
| 2026-05-06 10:56 | 45.78624 | -74.03084 | 32875 ft | 567 kts | 43° |
| 2026-05-06 10:57 | 45.83997 | -73.94822 | 32905 ft | 566 kts | 43° |
| 2026-05-06 10:57 | 45.89341 | -73.86589 | 32879 ft | 568 kts | 43° |
| 2026-05-06 10:58 | 45.94728 | -73.78263 | 32875 ft | 569 kts | 44° |
| 2026-05-06 10:58 | 46.00110 | -73.69915 | 32874 ft | 569 kts | 44° |
| 2026-05-06 10:59 | 46.05493 | -73.61544 | 32869 ft | 571 kts | 44° |
| 2026-05-06 10:59 | 46.10896 | -73.53116 | 32866 ft | 573 kts | 44° |
| 2026-05-06 11:00 | 46.16300 | -73.44657 | 32866 ft | 573 kts | 44° |
| 2026-05-06 11:00 | 46.21605 | -73.36003 | 32875 ft | 577 kts | 49° |
| 2026-05-06 11:01 | 46.25538 | -73.28183 | 32868 ft | 580 kts | 53° |
| 2026-05-06 11:01 | 46.31007 | -73.17185 | 32859 ft | 579 kts | 51° |
| 2026-05-06 11:02 | 46.35804 | -73.07821 | 32865 ft | 579 kts | 51° |
| 2026-05-06 11:02 | 46.39773 | -72.99999 | 32866 ft | 579 kts | 51° |
| 2026-05-06 11:03 | 46.44536 | -72.90578 | 32850 ft | 579 kts | 51° |
| 2026-05-06 11:03 | 46.49290 | -72.81156 | 32847 ft | 579 kts | 51° |
| 2026-05-06 11:04 | 46.54040 | -72.71709 | 32860 ft | 578 kts | 51° |
| 2026-05-06 11:04 | 46.58769 | -72.62273 | 32857 ft | 578 kts | 51° |
| 2026-05-06 11:05 | 46.63493 | -72.52813 | 32853 ft | 578 kts | 51° |
| 2026-05-06 11:05 | 46.68212 | -72.43331 | 32863 ft | 578 kts | 51° |
| 2026-05-06 11:06 | 46.72889 | -72.33905 | 32859 ft | 577 kts | 51° |
| 2026-05-06 11:06 | 46.77578 | -72.24421 | 32854 ft | 577 kts | 51° |
| 2026-05-06 11:07 | 46.82261 | -72.14914 | 32883 ft | 577 kts | 51° |
| 2026-05-06 11:07 | 46.86939 | -72.05386 | 32861 ft | 576 kts | 51° |
| 2026-05-06 11:08 | 46.91605 | -71.95850 | 32854 ft | 576 kts | 51° |
| 2026-05-06 11:08 | 46.96264 | -71.86296 | 32857 ft | 576 kts | 51° |
| 2026-05-06 11:09 | 47.00887 | -71.76784 | 32867 ft | 577 kts | 52° |
| 2026-05-06 11:09 | 47.05536 | -71.67183 | 32852 ft | 577 kts | 52° |
| 2026-05-06 11:10 | 47.10181 | -71.57557 | 32819 ft | 577 kts | 51° |
| 2026-05-06 11:10 | 47.14810 | -71.47932 | 32860 ft | 576 kts | 52° |
| 2026-05-06 11:11 | 47.19422 | -71.38310 | 32837 ft | 575 kts | 52° |
| 2026-05-06 11:11 | 47.24025 | -71.28669 | 32845 ft | 576 kts | 52° |
| 2026-05-06 11:12 | 47.28595 | -71.19069 | 32839 ft | 576 kts | 52° |
| 2026-05-06 11:12 | 47.33192 | -71.09377 | 32842 ft | 576 kts | 52° |
| 2026-05-06 11:13 | 47.37778 | -70.99673 | 32834 ft | 576 kts | 52° |
| 2026-05-06 11:13 | 47.42351 | -70.89960 | 32824 ft | 575 kts | 52° |
| 2026-05-06 11:14 | 47.46877 | -70.80313 | 32855 ft | 573 kts | 52° |
| 2026-05-06 11:14 | 47.51411 | -70.70616 | 32843 ft | 573 kts | 52° |
| 2026-05-06 11:15 | 47.55941 | -70.60895 | 32839 ft | 573 kts | 52° |
| 2026-05-06 11:15 | 47.60461 | -70.51164 | 32839 ft | 573 kts | 52° |
| 2026-05-06 11:16 | 47.64980 | -70.41398 | 32851 ft | 575 kts | 53° |
| 2026-05-06 11:16 | 47.69498 | -70.31601 | 32821 ft | 576 kts | 53° |
| 2026-05-06 11:17 | 47.74006 | -70.21787 | 32821 ft | 573 kts | 53° |
| 2026-05-06 11:17 | 47.78482 | -70.12007 | 32872 ft | 571 kts | 53° |
| 2026-05-06 11:18 | 47.82955 | -70.02200 | 32834 ft | 573 kts | 53° |
| 2026-05-06 11:18 | 47.87404 | -69.92415 | 32837 ft | 574 kts | 53° |
| 2026-05-06 11:19 | 47.91882 | -69.82525 | 32841 ft | 574 kts | 53° |
| 2026-05-06 11:19 | 47.96343 | -69.72643 | 32838 ft | 575 kts | 53° |
| 2026-05-06 11:20 | 48.00787 | -69.62765 | 32798 ft | 577 kts | 53° |
| 2026-05-06 11:20 | 48.05252 | -69.52799 | 32834 ft | 574 kts | 53° |
| 2026-05-06 11:21 | 48.09681 | -69.42874 | 32833 ft | 573 kts | 53° |
| 2026-05-06 11:21 | 48.14102 | -69.32935 | 32831 ft | 574 kts | 54° |
| 2026-05-06 11:22 | 48.18487 | -69.22934 | 32849 ft | 575 kts | 56° |
| 2026-05-06 11:22 | 48.22628 | -69.12745 | 32826 ft | 575 kts | 56° |
| 2026-05-06 11:23 | 48.26979 | -69.02674 | 32848 ft | 575 kts | 54° |
| 2026-05-06 11:23 | 48.31403 | -68.92721 | 32806 ft | 576 kts | 54° |
| 2026-05-06 11:24 | 48.35821 | -68.82731 | 32832 ft | 572 kts | 54° |
| 2026-05-06 11:24 | 48.40223 | -68.72772 | 32840 ft | 571 kts | 54° |
| 2026-05-06 11:25 | 48.44621 | -68.62805 | 32842 ft | 571 kts | 54° |
| 2026-05-06 11:25 | 48.49018 | -68.52801 | 32836 ft | 573 kts | 54° |
| 2026-05-06 11:26 | 48.53410 | -68.42770 | 32858 ft | 573 kts | 54° |
| 2026-05-06 11:26 | 48.57798 | -68.32715 | 32910 ft | 573 kts | 54° |
| 2026-05-06 11:27 | 48.62183 | -68.22630 | 32814 ft | 576 kts | 55° |
| 2026-05-06 11:27 | 48.66532 | -68.12589 | 32855 ft | 573 kts | 55° |
| 2026-05-06 11:28 | 48.70875 | -68.02518 | 32868 ft | 571 kts | 55° |
| 2026-05-06 11:28 | 48.75213 | -67.92429 | 32846 ft | 571 kts | 55° |
| 2026-05-06 11:29 | 48.79548 | -67.82307 | 32846 ft | 571 kts | 55° |
| 2026-05-06 11:29 | 48.83870 | -67.72177 | 32842 ft | 572 kts | 55° |
| 2026-05-06 11:30 | 48.88189 | -67.62017 | 32839 ft | 572 kts | 56° |
| 2026-05-06 11:30 | 48.92469 | -67.51911 | 32842 ft | 572 kts | 56° |
| 2026-05-06 11:31 | 48.96762 | -67.41735 | 32832 ft | 570 kts | 56° |
| 2026-05-06 11:31 | 49.01036 | -67.31563 | 32837 ft | 568 kts | 56° |
| 2026-05-06 11:32 | 49.05278 | -67.21428 | 32856 ft | 567 kts | 56° |
| 2026-05-06 11:32 | 49.09493 | -67.11323 | 32840 ft | 568 kts | 56° |
| 2026-05-06 11:33 | 49.13731 | -67.01124 | 32817 ft | 569 kts | 56° |
| 2026-05-06 11:33 | 49.17958 | -66.90912 | 32838 ft | 569 kts | 56° |
| 2026-05-06 11:34 | 49.22180 | -66.80675 | 32842 ft | 569 kts | 57° |
| 2026-05-06 11:34 | 49.26399 | -66.70404 | 32831 ft | 571 kts | 57° |
| 2026-05-06 11:35 | 49.30624 | -66.60081 | 32833 ft | 572 kts | 57° |
| 2026-05-06 11:35 | 49.34839 | -66.49741 | 32833 ft | 572 kts | 57° |
| 2026-05-06 11:36 | 49.39048 | -66.39377 | 32848 ft | 572 kts | 57° |
| 2026-05-06 11:36 | 49.43256 | -66.28974 | 32840 ft | 575 kts | 57° |
| 2026-05-06 11:37 | 49.47446 | -66.18576 | 32846 ft | 575 kts | 57° |
| 2026-05-06 11:37 | 49.51650 | -66.08102 | 32847 ft | 575 kts | 57° |
| 2026-05-06 11:38 | 49.55842 | -65.97617 | 32825 ft | 575 kts | 58° |
| 2026-05-06 11:38 | 49.60016 | -65.87132 | 32837 ft | 573 kts | 58° |
| 2026-05-06 11:39 | 49.64174 | -65.76644 | 32841 ft | 572 kts | 58° |
| 2026-05-06 11:39 | 49.68294 | -65.66210 | 32857 ft | 572 kts | 58° |
| 2026-05-06 11:40 | 49.72432 | -65.55694 | 32840 ft | 573 kts | 58° |
| 2026-05-06 11:40 | 49.76568 | -65.45141 | 32839 ft | 574 kts | 58° |
| 2026-05-06 11:41 | 49.80696 | -65.34566 | 32845 ft | 573 kts | 58° |
| 2026-05-06 11:41 | 49.84813 | -65.23973 | 32849 ft | 574 kts | 58° |
| 2026-05-06 11:42 | 49.88919 | -65.13371 | 32842 ft | 572 kts | 58° |
| 2026-05-06 11:42 | 49.93004 | -65.02773 | 32845 ft | 571 kts | 58° |
| 2026-05-06 11:43 | 49.97047 | -64.92242 | 32845 ft | 571 kts | 59° |
| 2026-05-06 11:43 | 50.01108 | -64.81623 | 32850 ft | 572 kts | 59° |
| 2026-05-06 11:44 | 50.07209 | -64.65593 | 32841 ft | 574 kts | 59° |
| 2026-05-06 11:44 | 50.11265 | -64.54885 | 32830 ft | 574 kts | 59° |
| 2026-05-06 11:45 | 50.15316 | -64.44143 | 32779 ft | 575 kts | 59° |
| 2026-05-06 11:45 | 50.19353 | -64.33392 | 32815 ft | 573 kts | 59° |
| 2026-05-06 11:46 | 50.23368 | -64.22652 | 32821 ft | 572 kts | 59° |
| 2026-05-06 11:46 | 50.27367 | -64.11909 | 32817 ft | 572 kts | 59° |
| 2026-05-06 11:47 | 50.31329 | -64.01222 | 32820 ft | 572 kts | 60° |
| 2026-05-06 11:47 | 50.35326 | -63.90401 | 32818 ft | 574 kts | 60° |
| 2026-05-06 11:48 | 50.39324 | -63.79534 | 32808 ft | 575 kts | 60° |
| 2026-05-06 11:48 | 50.43303 | -63.68673 | 32822 ft | 575 kts | 60° |
| 2026-05-06 11:49 | 50.47272 | -63.57790 | 32797 ft | 573 kts | 60° |
| 2026-05-06 11:49 | 50.50545 | -63.48779 | 32827 ft | 570 kts | 60° |
| 2026-05-06 11:50 | 50.55097 | -63.36180 | 32809 ft | 569 kts | 60° |
| 2026-05-06 11:50 | 50.58347 | -63.27151 | 32815 ft | 569 kts | 60° |
| 2026-05-06 11:51 | 50.62267 | -63.16229 | 32810 ft | 570 kts | 61° |
| 2026-05-06 11:51 | 50.66144 | -63.05378 | 32812 ft | 572 kts | 61° |
| 2026-05-06 11:52 | 50.70038 | -62.94438 | 32810 ft | 572 kts | 61° |
| 2026-05-06 11:52 | 50.73916 | -62.83496 | 32812 ft | 571 kts | 61° |
| 2026-05-06 11:53 | 50.77786 | -62.72526 | 32820 ft | 569 kts | 61° |
| 2026-05-06 11:53 | 50.81623 | -62.61595 | 32813 ft | 568 kts | 61° |
| 2026-05-06 11:54 | 50.85425 | -62.50717 | 32813 ft | 568 kts | 61° |
| 2026-05-06 11:54 | 50.89242 | -62.39751 | 32820 ft | 568 kts | 62° |
| 2026-05-06 11:55 | 50.93053 | -62.28760 | 32814 ft | 570 kts | 62° |
| 2026-05-06 11:55 | 50.96870 | -62.17706 | 32817 ft | 571 kts | 62° |
| 2026-05-06 11:56 | 51.00662 | -62.06686 | 32813 ft | 571 kts | 62° |
| 2026-05-06 11:56 | 51.04460 | -61.95591 | 32774 ft | 571 kts | 62° |
| 2026-05-06 11:57 | 51.08236 | -61.84511 | 32809 ft | 570 kts | 62° |
| 2026-05-06 11:57 | 51.12003 | -61.73400 | 32814 ft | 570 kts | 62° |
| 2026-05-06 11:58 | 51.15758 | -61.62280 | 32809 ft | 570 kts | 62° |
| 2026-05-06 11:58 | 51.19506 | -61.51132 | 32814 ft | 570 kts | 62° |
| 2026-05-06 11:59 | 51.23244 | -61.39967 | 32818 ft | 571 kts | 62° |
| 2026-05-06 11:59 | 51.26982 | -61.28756 | 32809 ft | 572 kts | 62° |
| 2026-05-06 12:00 | 51.30709 | -61.17527 | 32814 ft | 572 kts | 62° |
| 2026-05-06 12:00 | 51.34401 | -61.06352 | 32795 ft | 571 kts | 62° |
| 2026-05-06 12:01 | 51.38099 | -60.95103 | 32806 ft | 570 kts | 62° |
| 2026-05-06 12:01 | 51.41781 | -60.83845 | 32810 ft | 570 kts | 62° |
| 2026-05-06 12:02 | 51.45451 | -60.72578 | 32809 ft | 570 kts | 62° |
| 2026-05-06 12:02 | 51.49097 | -60.61336 | 32802 ft | 570 kts | 63° |
| 2026-05-06 12:03 | 51.52745 | -60.50040 | 32801 ft | 570 kts | 63° |
| 2026-05-06 12:03 | 51.56385 | -60.38716 | 32801 ft | 570 kts | 63° |
| 2026-05-06 12:04 | 51.60016 | -60.27367 | 32794 ft | 570 kts | 63° |
| 2026-05-06 12:04 | 51.63628 | -60.16025 | 32796 ft | 568 kts | 63° |
| 2026-05-06 12:05 | 51.67215 | -60.04697 | 32794 ft | 567 kts | 63° |
| 2026-05-06 12:05 | 51.70785 | -59.93368 | 32792 ft | 567 kts | 63° |
| 2026-05-06 12:06 | 51.74326 | -59.82090 | 32798 ft | 567 kts | 63° |
| 2026-05-06 12:06 | 51.77881 | -59.70722 | 32803 ft | 567 kts | 63° |
| 2026-05-06 12:07 | 51.81422 | -59.59340 | 32803 ft | 568 kts | 63° |
| 2026-05-06 12:07 | 51.84964 | -59.47914 | 32806 ft | 568 kts | 64° |
| 2026-05-06 12:08 | 51.88496 | -59.36464 | 32806 ft | 568 kts | 64° |
| 2026-05-06 12:08 | 51.92008 | -59.25020 | 32806 ft | 567 kts | 64° |
| 2026-05-06 12:09 | 51.95493 | -59.13599 | 32815 ft | 563 kts | 64° |
| 2026-05-06 12:09 | 51.98936 | -59.02245 | 32810 ft | 563 kts | 64° |
| 2026-05-06 12:10 | 52.02385 | -58.90834 | 32816 ft | 563 kts | 64° |
| 2026-05-06 12:10 | 52.05834 | -58.79378 | 32817 ft | 563 kts | 64° |
| 2026-05-06 12:11 | 52.09266 | -58.67921 | 32807 ft | 564 kts | 64° |
| 2026-05-06 12:11 | 52.12679 | -58.56487 | 32810 ft | 565 kts | 64° |
| 2026-05-06 12:12 | 52.16096 | -58.44982 | 32812 ft | 565 kts | 65° |
| 2026-05-06 12:12 | 52.19504 | -58.33445 | 32802 ft | 565 kts | 65° |
| 2026-05-06 12:13 | 52.22899 | -58.21897 | 32811 ft | 564 kts | 65° |
| 2026-05-06 12:13 | 52.26281 | -58.10338 | 32806 ft | 564 kts | 65° |
| 2026-05-06 12:14 | 52.29648 | -57.98769 | 32796 ft | 564 kts | 65° |
| 2026-05-06 12:14 | 52.33012 | -57.87157 | 32800 ft | 564 kts | 65° |
| 2026-05-06 12:15 | 52.36343 | -57.75603 | 32797 ft | 564 kts | 65° |
| 2026-05-06 12:15 | 52.39679 | -57.63975 | 32782 ft | 564 kts | 65° |
| 2026-05-06 12:16 | 52.43006 | -57.52325 | 32783 ft | 564 kts | 65° |
| 2026-05-06 12:16 | 52.46293 | -57.40757 | 32767 ft | 561 kts | 65° |
| 2026-05-06 12:17 | 52.49557 | -57.29188 | 32780 ft | 557 kts | 66° |
| 2026-05-06 12:17 | 52.52796 | -57.17627 | 32785 ft | 556 kts | 66° |
| 2026-05-06 12:18 | 52.56026 | -57.06062 | 32765 ft | 556 kts | 66° |
| 2026-05-06 12:18 | 52.59243 | -56.94504 | 32776 ft | 556 kts | 66° |
| 2026-05-06 12:19 | 52.62433 | -56.82988 | 32771 ft | 556 kts | 66° |
| 2026-05-06 12:19 | 52.65630 | -56.71396 | 32771 ft | 556 kts | 66° |
| 2026-05-06 12:20 | 52.68814 | -56.59793 | 32763 ft | 556 kts | 66° |
| 2026-05-06 12:20 | 52.71988 | -56.48163 | 32745 ft | 555 kts | 66° |
| 2026-05-06 12:21 | 52.75154 | -56.36566 | 32767 ft | 552 kts | 65° |
| 2026-05-06 12:21 | 52.77545 | -56.24597 | 32752 ft | 547 kts | 82° |
| 2026-05-06 12:22 | 52.79078 | -56.12257 | 32756 ft | 550 kts | 75° |
| 2026-05-06 12:22 | 52.81547 | -56.00344 | 32766 ft | 551 kts | 70° |
| 2026-05-06 12:23 | 52.84225 | -55.88455 | 32764 ft | 552 kts | 70° |
| 2026-05-06 12:23 | 52.86884 | -55.76536 | 32777 ft | 552 kts | 70° |
| 2026-05-06 12:24 | 52.89577 | -55.64621 | 32755 ft | 553 kts | 70° |
| 2026-05-06 12:24 | 52.92269 | -55.52700 | 32773 ft | 552 kts | 70° |
| 2026-05-06 12:25 | 52.94945 | -55.40782 | 32784 ft | 551 kts | 70° |
| 2026-05-06 12:25 | 52.97609 | -55.28859 | 32804 ft | 551 kts | 70° |
| 2026-05-06 12:26 | 53.00248 | -55.16987 | 32788 ft | 552 kts | 70° |
| 2026-05-06 12:26 | 53.02891 | -55.05030 | 32790 ft | 552 kts | 70° |
| 2026-05-06 12:27 | 53.05525 | -54.93046 | 32794 ft | 552 kts | 70° |
| 2026-05-06 12:27 | 53.08147 | -54.81043 | 32791 ft | 552 kts | 70° |
| 2026-05-06 12:28 | 53.10758 | -54.69022 | 32781 ft | 551 kts | 70° |
| 2026-05-06 12:28 | 53.13352 | -54.57011 | 32798 ft | 549 kts | 70° |
| 2026-05-06 12:29 | 53.15908 | -54.45103 | 32793 ft | 549 kts | 70° |
| 2026-05-06 12:29 | 53.18471 | -54.33095 | 32799 ft | 549 kts | 70° |
| 2026-05-06 12:30 | 53.21018 | -54.21087 | 32804 ft | 549 kts | 70° |
| 2026-05-06 12:30 | 53.23555 | -54.09059 | 32806 ft | 549 kts | 70° |
| 2026-05-06 12:31 | 53.26083 | -53.97002 | 32812 ft | 549 kts | 70° |
| 2026-05-06 12:31 | 53.28599 | -53.84928 | 32810 ft | 549 kts | 70° |
| 2026-05-06 12:32 | 53.31094 | -53.72878 | 32810 ft | 548 kts | 70° |
| 2026-05-06 12:32 | 53.33562 | -53.60896 | 32820 ft | 547 kts | 70° |
| 2026-05-06 12:33 | 53.36024 | -53.48869 | 32820 ft | 546 kts | 70° |
| 2026-05-06 12:33 | 53.38475 | -53.36823 | 32836 ft | 546 kts | 70° |
| 2026-05-06 12:34 | 53.40918 | -53.24740 | 32834 ft | 546 kts | 70° |
| 2026-05-06 12:34 | 53.43344 | -53.12672 | 32833 ft | 547 kts | 70° |
| 2026-05-06 12:35 | 53.45760 | -53.00570 | 32851 ft | 547 kts | 70° |